EGVO METAR and TAF | Updated Today

EGVO METAR

RAF Odiham

Observation time: 40 min. ago

EGVO 052020Z AUTO 27002KT 9999 NCD M01/M03 Q1045

Need help? Read our tutorial on how to read METARs or read the parsed version below.

RAF Odiham (EGVO) METAR

  • Weather conditions on Sun, 05 Feb 2023 20:20:00 +0000 (40 min. ago):
  • Present conditions: Dry
  • Clouds: Nil cloud detected
  • Visibility: Greater than 10 km
  • Wind: 270 degrees at 2 knots
  • Temperature: -1 celsius
  • Dew point: -3 celsius
  • Pressure: 1045 millibars
  • Remarks: None


Useful to know...

EGVO TAF

RAF Odiham

TAF EGVO 041623Z 0418/0506 26006KT 9999 BKN035 TEMPO 0423/0504 BKN008
Observation time: 28:37 hr. ago
Need help? Read our tutorial on how to read TAFs or read the parsed version below.

Parsed version of TAF for RAF Odiham (EGVO)

  • From 04 February at 18:00 UTC, to day 05 of the month at 06:00 UTC
  • Clouds: Broken sky at 1067 meters
  • Visibility: Greater than 10 km
  • Wind: 260 degrees at 6
  • Expected to arise temporarily, from 04 February at 23:00 UTC, to day 05 of the month at 04:00 UTC
  • Clouds: Broken sky at 244 meters